Emre Omur — TCYA7 — position and weather

sailwx.info

Track history (hours):
 
Tides and Currents Weather Stations Pressure Air Temp Water Temp Dewpoint Dewpoint Depression Visibility Wind Speed Wind Dir Waves Ship Positions

Emre Omur

Last reported at 2014-Dec-19 02:06 UTC. Time now 2014-Dec-20 09:45 UTC.
Position N 40°60' E 028°60'.

Length 64 m; draft 5 m.

Type: Tug. MMSI: 271040582.

Date/timePositionNaut miles runAvg speedWind from/ knotsBaromVisibWave heightAir tempDewpointWater temp
2014-Dec-19 02:06N 40°60' E 028°60'4 7.2
2014-Dec-19 01:33N 40°56' E 028°60'8 7.6
2014-Dec-19 00:32N 40°50' E 029°06'5 4.5
2014-Dec-18 23:30N 40°49' E 029°12'0 0.0
2014-Dec-18 22:31N 40°49' E 029°12'0 0.0
2014-Dec-18 21:33N 40°49' E 029°12'0 0.0
2014-Dec-18 20:33N 40°49' E 029°12'0 0.0
2014-Dec-18 19:27N 40°49' E 029°12'0 0.0
2014-Dec-18 18:33N 40°49' E 029°12'0 0.0
2014-Dec-18 17:21N 40°49' E 029°12'0 0.0
2014-Dec-18 16:33N 40°49' E 029°12'0 0.3
2014-Dec-18 15:33N 40°49' E 029°13'1 1.4
2014-Dec-18 14:27N 40°49' E 029°11'5 4.3
2014-Dec-18 13:16N 40°48' E 029°04'4 4.5
2014-Dec-18 12:29N 40°46' E 029°00'5 4.6
2014-Dec-18 11:28N 40°46' E 028°54'7 4.9
2014-Dec-18 10:05N 40°46' E 028°45'88 4.7
2014-Dec-17 15:14N 40°27' E 026°52'162 3.9
2014-Dec-15 21:30N 37°46' E 026°30'4 4.3
2014-Dec-15 20:29N 37°42' E 026°32'11 4.8
2014-Dec-15 18:17N 37°34' E 026°41'8 4.5
2014-Dec-15 16:31N 37°27' E 026°46'  
Track history (hours):
 
Tides and Currents Weather Stations Pressure Air Temp Water Temp Dewpoint Dewpoint Depression Visibility Wind Speed Wind Dir Waves Ship Positions

Emre Omur

Last reported at 2014-Dec-19 02:06 UTC. Time now 2014-Dec-20 09:45 UTC.
Position N 40°60' E 028°60'.

Length 64 m; draft 5 m.

Type: Tug. MMSI: 271040582.

Date/timePositionNaut miles runAvg speedWind from/ knotsBaromVisibWave heightAir tempDewpointWater temp
2014-Dec-19 02:06N 40°60' E 028°60'4 7.2
2014-Dec-19 01:33N 40°56' E 028°60'8 7.6
2014-Dec-19 00:32N 40°50' E 029°06'5 4.5
2014-Dec-18 23:30N 40°49' E 029°12'0 0.0
2014-Dec-18 22:31N 40°49' E 029°12'0 0.0
2014-Dec-18 21:33N 40°49' E 029°12'0 0.0
2014-Dec-18 20:33N 40°49' E 029°12'0 0.0
2014-Dec-18 19:27N 40°49' E 029°12'0 0.0
2014-Dec-18 18:33N 40°49' E 029°12'0 0.0
2014-Dec-18 17:21N 40°49' E 029°12'0 0.0
2014-Dec-18 16:33N 40°49' E 029°12'0 0.3
2014-Dec-18 15:33N 40°49' E 029°13'1 1.4
2014-Dec-18 14:27N 40°49' E 029°11'5 4.3
2014-Dec-18 13:16N 40°48' E 029°04'4 4.5
2014-Dec-18 12:29N 40°46' E 029°00'5 4.6
2014-Dec-18 11:28N 40°46' E 028°54'7 4.9
2014-Dec-18 10:05N 40°46' E 028°45'88 4.7
2014-Dec-17 15:14N 40°27' E 026°52'162 3.9
2014-Dec-15 21:30N 37°46' E 026°30'4 4.3
2014-Dec-15 20:29N 37°42' E 026°32'11 4.8
2014-Dec-15 18:17N 37°34' E 026°41'8 4.5
2014-Dec-15 16:31N 37°27' E 026°46'  

Dump ship's entire track history